Terminal Aerodrome Forecast
Issued by NWS Wilmington, OH

Current Version | Previous Version | Text Only | Print | Product List | Glossary Off
Versions: 1 2 3 4 5 6 7 8 9 10 11 12 13 14 15 16 17 18 19 20 21 22 23 24 25 26 27 28 29 30 31 32

000
FTUS41 KILN 281900 AAA
TAFDAY
TAF AMD
KDAY 281900Z 2819/2918 33010G16KT P6SM SCT040
     FM282200 29010KT P6SM SCT050
     FM290200 18003KT P6SM FEW080 BKN250
     FM291000 16008KT P6SM VCSH SCT040 BKN080
     FM291400 19012G21KT P6SM -SHRA BKN040=

USA.gov is the U.S. government's official web portal to all federal, state and local government web resources and services.